Time;durP1;ratioP1;P1;durP2;ratioP2;P2;SDS_P1;SDS_P2;PMS_P1;PMS_P2;Temp;Humidity;BMP_temperature;BMP_pressure;BME280_temperature;BME280_humidity;BME280_pressure;Samples;Min_cycle;Max_cycle;Signal;HPM_P1;HPM_P2
2022/03/02 00:02:14;;;;;;;;;92.00;80.00;;;;;;;;5065553;28;47209;-79
2022/03/02 00:04:39;;;;;;;;;143.25;126.75;;;;;;;;5061836;28;45430;-79
2022/03/02 00:07:04;;;;;;;;;84.67;70.33;;;;;;;;5064318;28;45347;-79
2022/03/02 00:09:30;;;;;;;;;92.00;89.33;;;;;;;;5075624;28;46153;-79
2022/03/02 00:11:57;;;;;;;;;68.25;54.00;;;;;;;;5074024;27;47051;-78
2022/03/02 00:14:22;;;;;;;;;79.25;63.00;;;;;;;;5059178;28;45449;-78
2022/03/02 00:16:47;;;;;;;;;79.50;62.75;;;;;;;;5061148;28;45362;-78
2022/03/02 00:19:12;;;;;;;;;73.00;58.50;;;;;;;;5060043;28;45248;-79
2022/03/02 00:21:38;;;;;;;;;78.50;60.50;;;;;;;;5062391;28;45628;-78
2022/03/02 00:24:04;;;;;;;;;89.67;76.67;;;;;;;;5063416;28;45560;-78
2022/03/02 00:26:30;;;;;;;;;88.67;74.33;;;;;;;;5064351;28;45329;-78
2022/03/02 00:28:55;;;;;;;;;105.33;90.67;;;;;;;;5073700;28;46903;-78
2022/03/02 00:31:20;;;;;;;;;101.67;84.00;;;;;;;;5074755;28;47358;-78
2022/03/02 00:33:45;;;;;;;;;66.00;49.25;;;;;;;;5061378;28;45211;-78
2022/03/02 00:36:11;;;;;;;;;75.75;56.00;;;;;;;;5074532;28;45438;-79
2022/03/02 00:38:36;;;;;;;;;111.00;98.00;;;;;;;;5067226;28;47076;-76
2022/03/02 00:41:01;;;;;;;;;94.00;79.00;;;;;;;;5061856;28;45148;-76
2022/03/02 00:43:26;;;;;;;;;126.33;103.00;;;;;;;;5062784;28;45490;-76
2022/03/02 00:45:51;;;;;;;;;202.75;161.25;;;;;;;;5061156;28;45364;-75
2022/03/02 00:48:17;;;;;;;;;76.50;54.50;;;;;;;;5067153;28;45870;-76
2022/03/02 00:50:43;;;;;;;;;96.67;80.00;;;;;;;;5060847;28;47289;-76
2022/03/02 00:53:09;;;;;;;;;61.75;46.50;;;;;;;;5069272;28;45389;-76
2022/03/02 00:55:35;;;;;;;;;60.75;45.25;;;;;;;;5059914;28;45327;-76
2022/03/02 00:58:01;;;;;;;;;100.67;88.67;;;;;;;;5071350;28;46206;-76
2022/03/02 01:00:26;;;;;;;;;90.33;75.33;;;;;;;;5072254;28;45448;-76
2022/03/02 01:02:52;;;;;;;;;74.50;53.25;;;;;;;;5069344;27;45771;-76
2022/03/02 01:05:17;;;;;;;;;92.00;82.67;;;;;;;;5058100;28;45249;-76
2022/03/02 01:07:42;;;;;;;;;58.25;47.00;;;;;;;;5072407;28;47432;-76
2022/03/02 01:10:08;;;;;;;;;51.25;41.25;;;;;;;;5059345;28;46372;-77
2022/03/02 01:12:33;;;;;;;;;46.00;38.50;;;;;;;;5063813;27;45489;-77
2022/03/02 01:14:59;;;;;;;;;49.25;39.00;;;;;;;;5079797;28;45215;-77
2022/03/02 01:17:24;;;;;;;;;51.25;42.50;;;;;;;;5064515;28;45505;-77
2022/03/02 01:19:50;;;;;;;;;53.25;45.00;;;;;;;;5057934;28;46340;-77
2022/03/02 01:22:15;;;;;;;;;53.25;41.50;;;;;;;;5074710;28;45479;-77
2022/03/02 01:24:41;;;;;;;;;47.25;37.50;;;;;;;;5061001;28;45221;-76
2022/03/02 01:27:06;;;;;;;;;62.75;46.75;;;;;;;;5071393;28;46122;-77
2022/03/02 01:29:33;;;;;;;;;60.75;45.00;;;;;;;;5062180;28;45354;-77
2022/03/02 01:31:59;;;;;;;;;57.75;42.00;;;;;;;;5066466;28;45362;-76
2022/03/02 01:34:24;;;;;;;;;53.75;43.25;;;;;;;;5067015;28;45237;-77
2022/03/02 01:36:49;;;;;;;;;57.50;45.25;;;;;;;;5069342;28;45360;-76
2022/03/02 01:39:15;;;;;;;;;52.25;41.25;;;;;;;;5061007;28;47279;-76
2022/03/02 01:41:40;;;;;;;;;53.00;42.75;;;;;;;;5069636;28;45512;-77
2022/03/02 01:44:06;;;;;;;;;53.00;42.50;;;;;;;;5061319;28;45394;-78
2022/03/02 01:46:31;;;;;;;;;52.00;40.75;;;;;;;;5071229;28;45978;-77
2022/03/02 01:48:56;;;;;;;;;55.25;37.00;;;;;;;;5069224;28;48317;-76
2022/03/02 01:51:22;;;;;;;;;59.00;45.00;;;;;;;;5068742;28;45297;-77
2022/03/02 01:53:47;;;;;;;;;48.75;40.75;;;;;;;;5065373;28;45288;-78
2022/03/02 01:56:12;;;;;;;;;49.75;41.25;;;;;;;;5064693;28;45205;-77
2022/03/02 01:58:38;;;;;;;;;46.75;40.75;;;;;;;;5063653;28;47340;-77
2022/03/02 02:01:04;;;;;;;;;51.25;42.25;;;;;;;;5067070;28;45199;-77
2022/03/02 02:03:29;;;;;;;;;48.25;41.00;;;;;;;;5065183;28;45310;-77
2022/03/02 02:05:55;;;;;;;;;54.25;42.00;;;;;;;;5063549;28;45257;-77
2022/03/02 02:08:20;;;;;;;;;51.50;41.75;;;;;;;;5065977;28;46746;-77
2022/03/02 02:10:46;;;;;;;;;60.25;45.25;;;;;;;;5061043;28;45240;-77
2022/03/02 02:13:11;;;;;;;;;56.25;43.00;;;;;;;;5075617;27;45298;-77
2022/03/02 02:15:36;;;;;;;;;49.75;42.00;;;;;;;;5080297;28;45520;-78
2022/03/02 02:18:02;;;;;;;;;51.00;42.00;;;;;;;;5062312;28;47484;-77
2022/03/02 02:20:27;;;;;;;;;43.75;38.25;;;;;;;;5061841;28;45272;-77
2022/03/02 02:22:52;;;;;;;;;47.50;39.25;;;;;;;;5075007;28;45419;-77
2022/03/02 02:25:18;;;;;;;;;50.00;40.75;;;;;;;;5082218;28;45313;-77
2022/03/02 02:27:45;;;;;;;;;45.75;39.75;;;;;;;;5066711;28;45348;-77
2022/03/02 02:30:12;;;;;;;;;51.00;39.25;;;;;;;;5060595;28;45381;-77
2022/03/02 02:32:40;;;;;;;;;51.00;40.00;;;;;;;;5073153;28;45223;-77
2022/03/02 02:35:06;;;;;;;;;45.75;38.00;;;;;;;;5060585;28;47150;-77
2022/03/02 02:37:33;;;;;;;;;45.50;38.50;;;;;;;;5071638;28;48031;-78
2022/03/02 02:39:59;;;;;;;;;53.00;42.25;;;;;;;;5061627;28;45299;-77
2022/03/02 02:42:25;;;;;;;;;55.00;43.00;;;;;;;;5072217;28;45432;-78
2022/03/02 02:44:50;;;;;;;;;52.00;40.50;;;;;;;;5060897;28;45639;-78
2022/03/02 02:47:15;;;;;;;;;52.25;41.25;;;;;;;;5066286;28;45498;-77
2022/03/02 02:49:41;;;;;;;;;51.50;39.50;;;;;;;;5061451;28;45427;-77
2022/03/02 02:52:06;;;;;;;;;51.25;40.25;;;;;;;;5064027;28;45419;-77
2022/03/02 02:54:32;;;;;;;;;49.00;38.00;;;;;;;;5061431;28;45409;-77
2022/03/02 02:56:57;;;;;;;;;46.50;39.25;;;;;;;;5071368;28;47287;-77
2022/03/02 02:59:22;;;;;;;;;54.25;39.75;;;;;;;;5067999;28;45440;-77
2022/03/02 03:01:47;;;;;;;;;40.00;34.25;;;;;;;;5070257;28;45464;-78
2022/03/02 03:04:13;;;;;;;;;47.00;40.50;;;;;;;;5059949;28;45813;-78
2022/03/02 03:06:38;;;;;;;;;45.00;36.00;;;;;;;;5066113;28;45631;-77
2022/03/02 03:09:03;;;;;;;;;52.75;43.25;;;;;;;;5068362;28;45385;-78
2022/03/02 03:11:28;;;;;;;;;45.00;38.00;;;;;;;;5063710;27;45352;-77
2022/03/02 03:13:54;;;;;;;;;51.25;40.75;;;;;;;;5061184;28;45491;-77
2022/03/02 03:16:19;;;;;;;;;50.25;40.25;;;;;;;;5062451;28;48614;-77
2022/03/02 03:18:44;;;;;;;;;55.50;40.75;;;;;;;;5061467;28;45276;-77
2022/03/02 03:21:09;;;;;;;;;39.25;36.00;;;;;;;;5061958;28;45173;-77
2022/03/02 03:23:35;;;;;;;;;50.50;38.50;;;;;;;;5069427;28;46306;-77
2022/03/02 03:26:00;;;;;;;;;52.50;41.50;;;;;;;;5063064;28;46414;-77
2022/03/02 03:28:25;;;;;;;;;55.25;42.00;;;;;;;;5071787;28;45366;-77
2022/03/02 03:30:50;;;;;;;;;46.25;37.25;;;;;;;;5064637;28;45464;-77
2022/03/02 03:33:16;;;;;;;;;53.50;40.00;;;;;;;;5072994;28;45271;-79
2022/03/02 03:35:41;;;;;;;;;49.75;37.75;;;;;;;;5062428;28;48354;-77
2022/03/02 03:38:06;;;;;;;;;41.75;35.00;;;;;;;;5069275;28;45704;-77
2022/03/02 03:40:32;;;;;;;;;50.00;39.75;;;;;;;;5063476;28;45254;-78
2022/03/02 03:42:57;;;;;;;;;52.75;39.50;;;;;;;;5063077;28;45525;-77
2022/03/02 03:45:22;;;;;;;;;50.25;41.50;;;;;;;;5061083;28;45458;-77
2022/03/02 03:47:48;;;;;;;;;50.00;41.50;;;;;;;;5074008;28;45352;-77
2022/03/02 03:50:14;;;;;;;;;42.50;37.25;;;;;;;;5060893;28;45335;-77
2022/03/02 03:52:40;;;;;;;;;50.75;36.75;;;;;;;;5066769;28;46246;-77
2022/03/02 03:55:05;;;;;;;;;54.50;41.75;;;;;;;;5061018;28;47356;-78
2022/03/02 03:57:31;;;;;;;;;46.75;40.25;;;;;;;;5060540;28;45424;-77
2022/03/02 03:59:56;;;;;;;;;49.00;36.00;;;;;;;;5061005;28;45589;-76
2022/03/02 04:02:21;;;;;;;;;52.00;40.25;;;;;;;;5065453;28;45428;-76
2022/03/02 04:04:46;;;;;;;;;52.75;39.00;;;;;;;;5060136;28;45305;-76
2022/03/02 04:07:12;;;;;;;;;50.75;39.50;;;;;;;;5065565;28;45347;-76
2022/03/02 04:09:37;;;;;;;;;51.25;41.25;;;;;;;;5070615;28;45268;-76
2022/03/02 04:12:02;;;;;;;;;54.50;42.75;;;;;;;;5061061;27;45328;-77
2022/03/02 04:14:28;;;;;;;;;46.75;36.00;;;;;;;;5066581;28;46929;-77
2022/03/02 04:16:53;;;;;;;;;54.00;42.00;;;;;;;;5070214;28;45273;-77
2022/03/02 04:19:18;;;;;;;;;53.75;41.25;;;;;;;;5060052;28;45260;-77
2022/03/02 04:21:44;;;;;;;;;54.00;42.75;;;;;;;;5064564;28;45183;-77
2022/03/02 04:24:09;;;;;;;;;50.25;40.25;;;;;;;;5066014;28;45390;-77
2022/03/02 04:26:34;;;;;;;;;46.75;38.00;;;;;;;;5065344;28;45643;-78
2022/03/02 04:28:59;;;;;;;;;49.75;40.00;;;;;;;;5059921;28;45267;-77
2022/03/02 04:31:25;;;;;;;;;48.75;37.00;;;;;;;;5061745;28;45558;-77
2022/03/02 04:33:50;;;;;;;;;48.75;40.50;;;;;;;;5068525;28;45416;-77
2022/03/02 04:36:15;;;;;;;;;52.75;39.50;;;;;;;;5064779;28;45357;-77
2022/03/02 04:38:40;;;;;;;;;47.25;41.00;;;;;;;;5066155;28;45182;-77
2022/03/02 04:41:06;;;;;;;;;51.50;42.00;;;;;;;;5061756;28;47023;-77
2022/03/02 04:43:31;;;;;;;;;52.75;39.25;;;;;;;;5068488;28;47182;-77
2022/03/02 04:45:57;;;;;;;;;45.00;39.25;;;;;;;;5062400;28;45395;-77
2022/03/02 04:48:23;;;;;;;;;51.50;41.00;;;;;;;;5068649;28;46053;-77
2022/03/02 04:50:48;;;;;;;;;47.50;39.25;;;;;;;;5062128;28;45789;-78
2022/03/02 04:53:16;;;;;;;;;51.75;42.75;;;;;;;;5060032;28;45680;-77
2022/03/02 04:55:42;;;;;;;;;55.50;45.25;;;;;;;;5060273;28;45309;-78
2022/03/02 04:58:07;;;;;;;;;54.00;42.25;;;;;;;;5063729;28;45269;-77
2022/03/02 05:00:34;;;;;;;;;53.00;40.75;;;;;;;;5061285;28;45390;-78
2022/03/02 05:03:01;;;;;;;;;48.00;41.00;;;;;;;;5061415;28;45338;-77
2022/03/02 05:05:26;;;;;;;;;50.25;42.00;;;;;;;;5059162;28;45366;-78
2022/03/02 05:07:52;;;;;;;;;53.50;41.25;;;;;;;;5060877;28;45323;-77
2022/03/02 05:10:19;;;;;;;;;48.00;41.75;;;;;;;;5059210;28;45529;-77
2022/03/02 05:12:44;;;;;;;;;55.00;40.25;;;;;;;;5067037;28;45431;-76
2022/03/02 05:15:11;;;;;;;;;44.50;39.25;;;;;;;;5059196;28;45275;-77
2022/03/02 05:17:36;;;;;;;;;53.25;40.00;;;;;;;;5061507;28;45236;-77
2022/03/02 05:20:02;;;;;;;;;43.25;38.25;;;;;;;;5062605;28;45705;-78
2022/03/02 05:22:28;;;;;;;;;56.00;42.00;;;;;;;;5074430;28;48517;-77
2022/03/02 05:24:53;;;;;;;;;52.50;43.25;;;;;;;;5059413;28;45529;-77
2022/03/02 05:27:18;;;;;;;;;51.50;41.25;;;;;;;;5067924;28;45158;-78
2022/03/02 05:29:43;;;;;;;;;55.25;41.25;;;;;;;;5060940;28;45437;-77
2022/03/02 05:32:09;;;;;;;;;46.75;38.50;;;;;;;;5065327;28;45585;-77
2022/03/02 05:34:34;;;;;;;;;49.00;40.75;;;;;;;;5066378;28;45678;-77
2022/03/02 05:37:00;;;;;;;;;48.75;41.25;;;;;;;;5064712;28;45268;-77
2022/03/02 05:39:25;;;;;;;;;45.00;38.75;;;;;;;;5058919;28;45221;-77
2022/03/02 05:41:51;;;;;;;;;55.75;41.75;;;;;;;;5064177;28;46579;-77
2022/03/02 05:44:16;;;;;;;;;47.00;36.25;;;;;;;;5065209;28;45788;-77
2022/03/02 05:46:41;;;;;;;;;53.00;43.00;;;;;;;;5065383;28;45334;-78
2022/03/02 05:49:08;;;;;;;;;54.75;45.25;;;;;;;;5059060;28;46244;-77
2022/03/02 05:51:34;;;;;;;;;53.00;42.00;;;;;;;;5060114;28;46467;-77
2022/03/02 05:53:59;;;;;;;;;57.00;44.00;;;;;;;;5072625;28;45287;-77
2022/03/02 05:56:25;;;;;;;;;44.25;37.50;;;;;;;;5076926;28;45327;-77
2022/03/02 05:58:50;;;;;;;;;54.50;42.25;;;;;;;;5059342;28;44890;-77
2022/03/02 06:01:15;;;;;;;;;45.50;38.50;;;;;;;;5071849;28;47124;-75
2022/03/02 06:03:41;;;;;;;;;49.25;40.50;;;;;;;;5058239;28;45309;-75
2022/03/02 06:06:06;;;;;;;;;45.75;38.75;;;;;;;;5060933;28;45576;-76
2022/03/02 06:08:32;;;;;;;;;55.50;41.00;;;;;;;;5058230;28;45421;-78
2022/03/02 06:10:57;;;;;;;;;56.00;41.75;;;;;;;;5059280;28;45509;-76
2022/03/02 06:13:22;;;;;;;;;49.25;38.50;;;;;;;;5058157;28;45481;-76
2022/03/02 06:15:48;;;;;;;;;52.25;42.25;;;;;;;;5059447;28;45225;-77
2022/03/02 06:18:13;;;;;;;;;48.25;38.50;;;;;;;;5066340;28;46086;-76
2022/03/02 06:20:40;;;;;;;;;57.75;43.25;;;;;;;;5061682;28;46567;-76
2022/03/02 06:23:05;;;;;;;;;50.25;42.00;;;;;;;;5070437;28;45427;-76
2022/03/02 06:25:31;;;;;;;;;48.50;41.25;;;;;;;;5061333;28;45282;-76
2022/03/02 06:27:56;;;;;;;;;56.50;44.25;;;;;;;;5072367;28;46525;-75
2022/03/02 06:30:22;;;;;;;;;46.50;37.25;;;;;;;;5061637;28;46444;-75
2022/03/02 06:32:47;;;;;;;;;52.50;42.75;;;;;;;;5074524;28;45232;-75
2022/03/02 06:35:12;;;;;;;;;54.75;42.00;;;;;;;;5067474;28;45404;-75
2022/03/02 06:37:38;;;;;;;;;57.25;44.00;;;;;;;;5071706;28;46207;-75
2022/03/02 06:40:06;;;;;;;;;54.50;42.25;;;;;;;;5061328;28;45610;-75
2022/03/02 06:42:39;;;;;;;;;57.00;45.50;;;;;;;;5072390;28;45305;-76
2022/03/02 06:45:16;;;;;;;;;45.75;37.25;;;;;;;;5061224;28;45507;-74
2022/03/02 06:47:46;;;;;;;;;56.50;43.25;;;;;;;;5069714;28;45897;-75
2022/03/02 06:50:12;;;;;;;;;47.00;38.50;;;;;;;;5061716;28;45805;-75
2022/03/02 06:52:39;;;;;;;;;48.00;37.25;;;;;;;;5077272;28;45714;-74
2022/03/02 06:55:18;;;;;;;;;53.50;41.75;;;;;;;;5076640;28;45413;-74
2022/03/02 06:57:51;;;;;;;;;53.25;41.75;;;;;;;;5067759;28;46905;-75
2022/03/02 07:00:17;;;;;;;;;54.75;42.25;;;;;;;;5065153;28;45442;-75
2022/03/02 07:02:46;;;;;;;;;55.75;44.00;;;;;;;;5063578;28;45295;-75
2022/03/02 07:05:11;;;;;;;;;49.50;40.50;;;;;;;;5061364;28;45234;-75
2022/03/02 07:07:37;;;;;;;;;47.75;39.25;;;;;;;;5064278;28;46067;-75
2022/03/02 07:10:03;;;;;;;;;44.00;39.75;;;;;;;;5060899;28;45587;-75
2022/03/02 07:12:29;;;;;;;;;55.00;39.25;;;;;;;;5063515;27;45241;-76
2022/03/02 07:14:54;;;;;;;;;50.50;41.50;;;;;;;;5059942;28;45360;-76
2022/03/02 07:17:21;;;;;;;;;53.75;43.25;;;;;;;;5063473;28;45669;-74
2022/03/02 07:19:46;;;;;;;;;51.25;39.75;;;;;;;;5060882;28;45300;-73
2022/03/02 07:22:15;;;;;;;;;52.25;42.00;;;;;;;;5073176;28;45519;-75
2022/03/02 07:24:46;;;;;;;;;42.50;38.25;;;;;;;;5062100;28;45307;-75
2022/03/02 07:27:14;;;;;;;;;47.50;39.25;;;;;;;;5068412;28;45464;-75
2022/03/02 07:29:40;;;;;;;;;69.25;51.50;;;;;;;;5063218;28;47022;-75
2022/03/02 07:32:07;;;;;;;;;46.25;38.00;;;;;;;;5073157;28;45384;-75
2022/03/02 07:34:32;;;;;;;;;42.50;38.00;;;;;;;;5064276;28;45301;-77
2022/03/02 07:36:59;;;;;;;;;47.50;39.25;;;;;;;;5064034;27;45638;-75
2022/03/02 07:39:25;;;;;;;;;71.67;56.67;;;;;;;;5061784;28;45449;-75
2022/03/02 07:41:50;;;;;;;;;46.25;39.50;;;;;;;;5062913;28;45442;-75
2022/03/02 07:44:16;;;;;;;;;55.50;41.25;;;;;;;;5059927;28;45505;-76
2022/03/02 07:46:41;;;;;;;;;47.25;39.25;;;;;;;;5059782;28;45428;-75
2022/03/02 07:49:06;;;;;;;;;50.25;41.00;;;;;;;;5060770;28;46238;-75
2022/03/02 07:51:33;;;;;;;;;39.50;37.25;;;;;;;;5066797;28;45562;-78
2022/03/02 07:54:03;;;;;;;;;48.75;39.50;;;;;;;;5059595;28;45215;-75
2022/03/02 07:56:29;;;;;;;;;47.00;37.75;;;;;;;;5059767;28;45395;-76
2022/03/02 07:58:59;;;;;;;;;56.00;42.50;;;;;;;;5060997;28;45366;-75
2022/03/02 08:01:25;;;;;;;;;51.00;41.25;;;;;;;;5067619;28;45312;-75
2022/03/02 08:03:50;;;;;;;;;51.50;43.50;;;;;;;;5066524;28;45412;-76
2022/03/02 08:06:16;;;;;;;;;52.75;41.25;;;;;;;;5064006;28;45232;-76
2022/03/02 08:08:41;;;;;;;;;45.00;38.75;;;;;;;;5059100;28;45585;-75
2022/03/02 08:11:06;;;;;;;;;49.50;41.25;;;;;;;;5060159;28;45313;-78
2022/03/02 08:13:33;;;;;;;;;53.50;41.25;;;;;;;;5064473;28;45388;-78
2022/03/02 08:15:59;;;;;;;;;38.75;37.00;;;;;;;;5064734;27;46434;-77
2022/03/02 08:18:24;;;;;;;;;50.75;41.50;;;;;;;;5061946;27;47580;-77
2022/03/02 08:20:51;;;;;;;;;50.00;39.00;;;;;;;;5063235;28;45443;-78
2022/03/02 08:23:19;;;;;;;;;55.25;41.50;;;;;;;;5064224;28;45320;-78
2022/03/02 08:25:45;;;;;;;;;54.75;40.75;;;;;;;;5065629;28;46005;-78
2022/03/02 08:28:10;;;;;;;;;53.25;43.75;;;;;;;;5059052;28;45448;-77
2022/03/02 08:30:36;;;;;;;;;47.75;40.50;;;;;;;;5062673;28;45783;-77
2022/03/02 08:33:01;;;;;;;;;53.50;42.00;;;;;;;;5059078;28;45370;-77
2022/03/02 08:35:30;;;;;;;;;51.00;39.25;;;;;;;;5068355;28;46006;-76
2022/03/02 08:37:56;;;;;;;;;51.25;40.50;;;;;;;;5064196;28;47421;-77
2022/03/02 08:40:21;;;;;;;;;42.25;37.25;;;;;;;;5068325;28;45408;-78
2022/03/02 08:42:49;;;;;;;;;48.75;38.75;;;;;;;;5058405;28;45301;-76
2022/03/02 08:45:14;;;;;;;;;51.50;38.50;;;;;;;;5058454;28;44917;-77
2022/03/02 08:47:39;;;;;;;;;44.25;35.50;;;;;;;;5065428;28;47688;-77
2022/03/02 08:50:05;;;;;;;;;45.50;38.25;;;;;;;;5058036;28;45313;-77
2022/03/02 08:52:32;;;;;;;;;47.00;39.50;;;;;;;;5073573;28;45382;-77
2022/03/02 08:55:00;;;;;;;;;54.50;40.00;;;;;;;;5059485;28;45647;-78
2022/03/02 08:57:25;;;;;;;;;50.50;40.00;;;;;;;;5064087;28;47533;-77
2022/03/02 08:59:52;;;;;;;;;52.00;39.75;;;;;;;;5062713;28;45337;-76
2022/03/02 09:02:19;;;;;;;;;50.50;38.00;;;;;;;;5068899;28;45360;-75
2022/03/02 09:04:46;;;;;;;;;54.75;44.50;;;;;;;;5061445;28;45544;-76
2022/03/02 09:07:11;;;;;;;;;48.50;37.75;;;;;;;;5063278;28;47640;-75
2022/03/02 09:09:38;;;;;;;;;52.00;40.25;;;;;;;;5077661;28;45622;-76
2022/03/02 09:12:04;;;;;;;;;47.75;40.50;;;;;;;;5076407;28;45663;-74
2022/03/02 09:14:29;;;;;;;;;52.50;42.00;;;;;;;;5060739;28;46123;-76
2022/03/02 09:16:55;;;;;;;;;48.75;39.50;;;;;;;;5068815;28;47318;-76
2022/03/02 09:19:20;;;;;;;;;55.75;43.00;;;;;;;;5062092;28;45419;-76
2022/03/02 09:21:45;;;;;;;;;52.50;43.50;;;;;;;;5058393;28;45638;-75
2022/03/02 09:24:12;;;;;;;;;45.50;39.25;;;;;;;;5073179;28;47413;-75
2022/03/02 09:26:41;;;;;;;;;52.25;40.00;;;;;;;;5058286;28;47404;-76
2022/03/02 09:29:07;;;;;;;;;40.50;31.75;;;;;;;;5070706;28;45982;-75
2022/03/02 09:31:33;;;;;;;;;49.25;39.75;;;;;;;;5060460;28;45247;-75
2022/03/02 09:34:02;;;;;;;;;39.25;36.25;;;;;;;;5057931;28;45515;-75
2022/03/02 09:36:27;;;;;;;;;51.50;37.75;;;;;;;;5060871;28;46536;-76
2022/03/02 09:38:53;;;;;;;;;46.75;38.75;;;;;;;;5067616;28;45344;-75
2022/03/02 09:41:29;;;;;;;;;50.00;40.75;;;;;;;;5074035;28;45513;-76
2022/03/02 09:43:56;;;;;;;;;43.75;35.50;;;;;;;;5058411;28;45335;-76
2022/03/02 09:46:27;;;;;;;;;51.75;42.50;;;;;;;;5060660;28;45517;-76
2022/03/02 09:48:57;;;;;;;;;46.00;38.25;;;;;;;;5078065;28;45399;-76
2022/03/02 09:51:23;;;;;;;;;44.75;38.00;;;;;;;;5073996;28;45310;-77
2022/03/02 09:53:52;;;;;;;;;51.75;40.75;;;;;;;;5060098;28;45557;-76
2022/03/02 09:56:18;;;;;;;;;55.50;40.50;;;;;;;;5064351;28;46810;-76
2022/03/02 09:58:44;;;;;;;;;48.25;39.25;;;;;;;;5061748;28;45303;-76
2022/03/02 10:01:15;;;;;;;;;49.50;40.50;;;;;;;;5068088;28;45294;-77
2022/03/02 10:03:47;;;;;;;;;47.50;38.50;;;;;;;;5070865;28;45438;-76
2022/03/02 10:06:12;;;;;;;;;42.75;36.25;;;;;;;;5068970;27;47485;-77
2022/03/02 10:08:45;;;;;;;;;52.00;42.00;;;;;;;;5064471;28;45630;-76
2022/03/02 10:11:12;;;;;;;;;50.50;38.25;;;;;;;;5064130;27;45205;-76
2022/03/02 10:13:37;;;;;;;;;47.00;36.75;;;;;;;;5061467;28;46311;-76
2022/03/02 10:16:04;;;;;;;;;54.50;40.25;;;;;;;;5061401;28;46083;-77
2022/03/02 10:18:32;;;;;;;;;53.00;42.75;;;;;;;;5060840;28;45404;-78
2022/03/02 10:20:59;;;;;;;;;32.50;26.75;;;;;;;;5062670;28;45258;-78
2022/03/02 10:23:37;;;;;;;;;38.75;33.25;;;;;;;;5060701;28;45154;-78
2022/03/02 10:26:08;;;;;;;;;50.50;35.75;;;;;;;;5062832;28;45448;-77
2022/03/02 10:28:55;;;;;;;;;48.50;37.75;;;;;;;;5060688;28;45309;-78
2022/03/02 10:31:33;;;;;;;;;47.25;40.25;;;;;;;;5062574;28;45187;-79
2022/03/02 10:34:07;;;;;;;;;55.25;40.25;;;;;;;;5059621;28;46527;-79
2022/03/02 10:36:37;;;;;;;;;57.75;44.75;;;;;;;;5061626;28;48270;-79
2022/03/02 10:39:05;;;;;;;;;47.75;40.00;;;;;;;;5060801;28;45489;-77
2022/03/02 10:41:33;;;;;;;;;47.25;38.00;;;;;;;;5063802;28;45503;-78
2022/03/02 10:44:06;;;;;;;;;44.00;38.00;;;;;;;;5069996;28;45402;-77
2022/03/02 10:46:32;;;;;;;;;50.00;40.25;;;;;;;;5063512;28;45322;-77
2022/03/02 10:49:04;;;;;;;;;47.00;36.75;;;;;;;;5061539;28;45256;-77
2022/03/02 10:51:30;;;;;;;;;50.50;38.75;;;;;;;;5063502;28;45822;-77
2022/03/02 10:53:56;;;;;;;;;51.50;41.00;;;;;;;;5062667;28;47107;-77
2022/03/02 10:56:25;;;;;;;;;49.50;39.25;;;;;;;;5066353;28;46586;-76
2022/03/02 10:58:51;;;;;;;;;53.25;41.00;;;;;;;;5069299;28;45348;-77
2022/03/02 11:01:19;;;;;;;;;58.50;43.00;;;;;;;;5067563;28;45406;-77
2022/03/02 11:03:44;;;;;;;;;53.00;42.00;;;;;;;;5062820;28;45478;-76
2022/03/02 11:06:11;;;;;;;;;49.75;40.25;;;;;;;;5066442;27;46477;-76
2022/03/02 11:08:37;;;;;;;;;50.50;40.75;;;;;;;;5060683;28;45287;-76
2022/03/02 11:11:05;;;;;;;;;52.50;41.50;;;;;;;;5072618;28;45292;-76
2022/03/02 11:13:30;;;;;;;;;64.00;48.50;;;;;;;;5066892;28;46163;-76
2022/03/02 11:15:57;;;;;;;;;47.50;39.25;;;;;;;;5058462;28;47138;-76
2022/03/02 11:18:35;;;;;;;;;53.00;42.75;;;;;;;;5059988;28;45466;-76
2022/03/02 11:21:07;;;;;;;;;48.00;40.25;;;;;;;;5062869;28;45236;-76
2022/03/02 11:23:40;;;;;;;;;50.00;40.50;;;;;;;;5059798;28;45509;-76
2022/03/02 11:26:07;;;;;;;;;56.25;45.00;;;;;;;;5062815;28;46331;-76
2022/03/02 11:28:34;;;;;;;;;54.25;41.50;;;;;;;;5067777;28;45433;-78
2022/03/02 11:31:04;;;;;;;;;52.75;40.75;;;;;;;;5062486;28;45203;-77
2022/03/02 11:33:30;;;;;;;;;52.75;40.25;;;;;;;;5069375;28;45437;-77
2022/03/02 11:35:59;;;;;;;;;55.50;42.00;;;;;;;;5060168;28;48249;-79
2022/03/02 11:38:28;;;;;;;;;52.75;42.75;;;;;;;;5068481;28;45244;-81
2022/03/02 11:40:53;;;;;;;;;48.50;38.25;;;;;;;;5060789;28;45383;-79
2022/03/02 11:43:25;;;;;;;;;53.50;41.50;;;;;;;;5068690;27;46010;-78
2022/03/02 11:45:56;;;;;;;;;47.25;34.75;;;;;;;;5059806;28;46967;-77
2022/03/02 11:48:21;;;;;;;;;46.75;40.25;;;;;;;;5062502;27;45440;-76
2022/03/02 11:51:06;;;;;;;;;48.75;38.25;;;;;;;;5061103;28;45706;-82
2022/03/02 11:53:33;;;;;;;;;51.75;40.25;;;;;;;;5062551;28;45241;-78
2022/03/02 11:55:59;;;;;;;;;49.00;39.75;;;;;;;;5062221;28;46394;-83
2022/03/02 11:58:25;;;;;;;;;47.75;39.00;;;;;;;;5063475;28;45536;-77
2022/03/02 12:00:50;;;;;;;;;49.00;38.00;;;;;;;;5073002;28;45213;-82
2022/03/02 12:03:15;;;;;;;;;50.75;40.50;;;;;;;;5067438;28;45414;-80
2022/03/02 12:05:41;;;;;;;;;48.00;40.50;;;;;;;;5060817;28;45465;-82
2022/03/02 12:08:06;;;;;;;;;49.00;37.50;;;;;;;;5063078;28;45437;-83
2022/03/02 12:10:36;;;;;;;;;51.50;39.75;;;;;;;;5059348;28;45340;-81
2022/03/02 12:13:01;;;;;;;;;48.50;38.00;;;;;;;;5062943;27;45582;-88
2022/03/02 12:15:40;;;;;;;;;44.00;37.00;;;;;;;;5080516;28;45424;-81
2022/03/02 12:18:09;;;;;;;;;46.25;38.00;;;;;;;;5066123;28;45173;-81
2022/03/02 12:20:42;;;;;;;;;49.50;39.50;;;;;;;;5058985;28;45412;-83
2022/03/02 12:23:07;;;;;;;;;50.75;38.00;;;;;;;;5068304;28;45510;-79
2022/03/02 12:25:33;;;;;;;;;39.50;34.75;;;;;;;;5058081;28;46664;-81
2022/03/02 12:28:04;;;;;;;;;44.25;36.25;;;;;;;;5071373;28;45488;-84
2022/03/02 12:30:33;;;;;;;;;49.50;36.75;;;;;;;;5061318;28;45257;-83
2022/03/02 12:32:58;;;;;;;;;53.25;40.25;;;;;;;;5069347;28;45380;-80
2022/03/02 12:35:24;;;;;;;;;49.50;40.50;;;;;;;;5059176;28;46057;-82
2022/03/02 12:37:56;;;;;;;;;51.50;41.00;;;;;;;;5065179;28;45493;-80
2022/03/02 12:40:26;;;;;;;;;49.75;40.50;;;;;;;;5058413;28;45316;-81
2022/03/02 12:42:52;;;;;;;;;48.50;40.00;;;;;;;;5067128;28;46446;-85
2022/03/02 12:45:18;;;;;;;;;52.75;39.50;;;;;;;;5057176;28;47264;-82
2022/03/02 12:47:43;;;;;;;;;50.25;39.50;;;;;;;;5061790;28;45590;-79
2022/03/02 12:50:10;;;;;;;;;53.75;40.50;;;;;;;;5061530;28;45409;-80
2022/03/02 12:52:35;;;;;;;;;47.75;39.50;;;;;;;;5061543;28;45534;-81
2022/03/02 12:55:02;;;;;;;;;47.50;37.50;;;;;;;;5060203;28;45207;-81
2022/03/02 12:57:29;;;;;;;;;52.50;41.75;;;;;;;;5062263;28;46272;-81
2022/03/02 12:59:55;;;;;;;;;51.00;41.50;;;;;;;;5059746;28;45342;-81
2022/03/02 13:02:22;;;;;;;;;47.50;40.75;;;;;;;;5059770;28;45558;-78
2022/03/02 13:05:06;;;;;;;;;52.25;40.75;;;;;;;;5074810;28;47179;-80
2022/03/02 13:07:31;;;;;;;;;46.50;37.75;;;;;;;;5072522;28;45527;-80
2022/03/02 13:09:57;;;;;;;;;44.75;36.00;;;;;;;;5059237;28;45258;-80
2022/03/02 13:12:28;;;;;;;;;49.25;38.00;;;;;;;;5059806;28;45499;-81
2022/03/02 13:14:54;;;;;;;;;49.75;38.50;;;;;;;;5058961;28;45678;-80
2022/03/02 13:17:21;;;;;;;;;46.00;36.50;;;;;;;;5065075;28;45408;-80
2022/03/02 13:19:50;;;;;;;;;47.00;40.00;;;;;;;;5061881;28;45402;-80
2022/03/02 13:22:37;;;;;;;;;46.50;39.75;;;;;;;;5066122;28;45516;-80
2022/03/02 13:25:04;;;;;;;;;38.50;35.50;;;;;;;;5070909;28;45383;-80
2022/03/02 13:27:29;;;;;;;;;43.75;36.75;;;;;;;;5068493;28;45457;-80
2022/03/02 13:30:04;;;;;;;;;49.75;39.75;;;;;;;;5062175;28;45447;-80
2022/03/02 13:32:54;;;;;;;;;51.25;39.50;;;;;;;;5072264;28;45421;-80
2022/03/02 13:35:21;;;;;;;;;48.00;38.75;;;;;;;;5062285;28;45494;-80
2022/03/02 13:37:57;;;;;;;;;46.50;37.25;;;;;;;;5068987;28;45225;-80
2022/03/02 13:40:34;;;;;;;;;49.50;39.50;;;;;;;;5065181;28;45346;-80
2022/03/02 13:43:06;;;;;;;;;52.25;39.25;;;;;;;;5073682;28;45465;-80
2022/03/02 13:45:34;;;;;;;;;45.50;36.00;;;;;;;;5062109;28;46100;-80
2022/03/02 13:48:26;;;;;;;;;43.75;36.50;;;;;;;;5064642;28;45365;-80
2022/03/02 13:50:57;;;;;;;;;46.25;37.50;;;;;;;;5060694;28;45327;-80
2022/03/02 13:53:33;;;;;;;;;46.50;38.25;;;;;;;;5063690;28;46167;-80
2022/03/02 13:56:06;;;;;;;;;46.25;38.75;;;;;;;;5064332;28;45247;-80
2022/03/02 13:58:31;;;;;;;;;42.25;35.50;;;;;;;;5062559;28;45315;-80
2022/03/02 14:01:16;;;;;;;;;42.50;35.25;;;;;;;;5065747;28;45258;-80
2022/03/02 14:03:45;;;;;;;;;36.75;32.50;;;;;;;;5065155;28;45362;-80
2022/03/02 14:06:12;;;;;;;;;46.25;38.00;;;;;;;;5062186;28;47400;-80
2022/03/02 14:08:45;;;;;;;;;48.75;37.25;;;;;;;;5068331;28;45704;-80
2022/03/02 14:11:26;;;;;;;;;53.25;41.25;;;;;;;;5079414;27;45484;-80
2022/03/02 14:13:51;;;;;;;;;51.25;39.75;;;;;;;;5068011;28;46026;-80
2022/03/02 14:16:16;;;;;;;;;47.00;38.50;;;;;;;;5062014;28;48254;-80